Time;durP1;ratioP1;P1;durP2;ratioP2;P2;SDS_P1;SDS_P2;PMS_P1;PMS_P2;Temp;Humidity;BMP_temperature;BMP_pressure;BME280_temperature;BME280_humidity;BME280_pressure;Samples;Min_cycle;Max_cycle;Signal;HPM_P1;HPM_P2
2023/10/27 00:02:15;;;;;;;1.00;0.83;;;;;;;-143.84;64.39;45085.25;5090828;28;20451;-57
2023/10/27 00:04:44;;;;;;;1.17;0.93;;;;;;;-143.84;64.71;45075.72;5090845;28;20470;-57
2023/10/27 00:07:11;;;;;;;1.57;0.93;;;;;;;-143.84;64.66;45068.13;5090860;28;21047;-57
2023/10/27 00:09:39;;;;;;;1.00;0.60;;;;;;;-143.84;64.92;45060.50;5090797;28;21019;-57
2023/10/27 00:12:07;;;;;;;1.20;0.77;;;;;;;-143.84;65.03;45037.66;5090713;28;20443;-57
2023/10/27 00:14:34;;;;;;;0.83;0.57;;;;;;;-143.84;65.19;45094.78;5090760;28;20440;-57
2023/10/27 00:17:01;;;;;;;1.00;0.40;;;;;;;-143.84;65.27;45071.91;5090959;28;20512;-57
2023/10/27 00:19:28;;;;;;;0.80;0.40;;;;;;;-143.84;65.05;45077.63;5090217;28;20436;-57
2023/10/27 00:21:57;;;;;;;0.90;0.70;;;;;;;-143.84;65.31;45043.34;5090427;28;20448;-57
2023/10/27 00:24:24;;;;;;;0.90;0.53;;;;;;;-143.84;65.45;45094.78;5090128;28;21062;-57
2023/10/27 00:26:51;;;;;;;1.23;0.97;;;;;;;-143.84;65.43;45064.31;5090183;28;20848;-57
2023/10/27 00:29:18;;;;;;;1.20;0.47;;;;;;;-143.84;65.36;45092.88;5090242;28;20994;-57
2023/10/27 00:31:45;;;;;;;1.53;0.80;;;;;;;-143.84;65.41;45070.00;5090541;28;20497;-57
2023/10/27 00:34:12;;;;;;;15.03;0.83;;;;;;;-143.84;65.50;45058.59;5090255;28;20961;-57
2023/10/27 00:36:40;;;;;;;0.80;0.50;;;;;;;-143.84;65.67;45085.25;5090209;28;20448;-57
2023/10/27 00:39:08;;;;;;;0.80;0.50;;;;;;;-143.84;65.60;45079.53;5089882;28;21042;-57
2023/10/27 00:41:38;;;;;;;0.80;0.50;;;;;;;-143.84;65.95;45089.06;5090310;28;20953;-57
2023/10/27 00:44:06;;;;;;;7.67;0.80;;;;;;;-143.84;65.95;45098.56;5090295;28;20443;-57
2023/10/27 00:46:33;;;;;;;0.83;0.60;;;;;;;-143.84;66.00;45079.53;5090064;28;20529;-57
2023/10/27 00:49:01;;;;;;;0.97;0.87;;;;;;;-143.84;65.76;45079.53;5090166;28;20440;-57
2023/10/27 00:51:29;;;;;;;0.80;0.40;;;;;;;-143.84;66.13;45085.25;5089902;28;20501;-57
2023/10/27 00:53:58;;;;;;;1.17;0.60;;;;;;;-143.84;66.04;45070.00;5088482;28;20447;-57
2023/10/27 00:56:28;;;;;;;1.40;1.00;;;;;;;-143.84;66.18;45089.06;5089540;28;20536;-57
2023/10/27 00:58:58;;;;;;;1.10;0.70;;;;;;;-143.84;66.14;45068.13;5089834;28;20791;-57
2023/10/27 01:01:26;;;;;;;1.07;0.97;;;;;;;-143.84;66.29;45077.63;5090054;28;20432;-57
2023/10/27 01:03:55;;;;;;;0.90;0.63;;;;;;;-143.84;66.23;45100.47;5090151;28;20436;-57
2023/10/27 01:06:23;;;;;;;0.80;0.50;;;;;;;-143.84;66.19;45081.44;5089459;28;20482;-57
2023/10/27 01:08:50;;;;;;;0.80;0.50;;;;;;;-143.84;65.89;45087.16;5089533;28;20440;-57
2023/10/27 01:11:18;;;;;;;0.80;0.40;;;;;;;-143.84;65.91;45102.38;5089403;28;20856;-57
2023/10/27 01:13:50;;;;;;;0.80;0.50;;;;;;;-143.84;65.68;45081.44;5089611;28;20499;-57
2023/10/27 01:16:17;;;;;;;0.80;0.40;;;;;;;-143.84;65.56;45070.00;5089583;28;20448;-57
2023/10/27 01:18:44;;;;;;;1.00;0.80;;;;;;;-143.84;65.54;45066.22;5089355;28;20447;-57
2023/10/27 01:21:12;;;;;;;0.80;0.40;;;;;;;-143.84;65.46;45092.88;5089869;28;20436;-57
2023/10/27 01:23:40;;;;;;;0.80;0.50;;;;;;;-143.84;65.37;45066.22;5089850;28;20511;-57
2023/10/27 01:26:07;;;;;;;0.90;0.60;;;;;;;-143.84;65.23;45087.16;5089520;28;20483;-57
2023/10/27 01:28:34;;;;;;;0.90;0.53;;;;;;;-143.84;65.13;45064.31;5089340;28;20443;-57
2023/10/27 01:31:01;;;;;;;0.90;0.50;;;;;;;-143.84;65.15;45079.53;5089638;28;20501;-57
2023/10/27 01:33:29;;;;;;;1.13;0.60;;;;;;;-143.84;65.19;45090.97;5089167;28;20517;-57
2023/10/27 01:35:56;;;;;;;1.23;0.50;;;;;;;-143.84;65.06;45079.53;5089096;28;20484;-57
2023/10/27 01:38:23;;;;;;;1.33;0.97;;;;;;;-143.84;65.19;45092.88;5089298;28;20451;-57
2023/10/27 01:40:52;;;;;;;1.00;0.57;;;;;;;-143.84;65.25;45102.38;5089110;28;20501;-57
2023/10/27 01:43:19;;;;;;;0.97;0.50;;;;;;;-143.84;65.07;45087.16;5089119;28;20444;-57
2023/10/27 01:45:46;;;;;;;1.23;1.13;;;;;;;-143.84;65.22;45081.44;5088812;28;20480;-57
2023/10/27 01:48:13;;;;;;;0.90;0.70;;;;;;;-143.84;65.30;45094.78;5089001;28;20490;-57
2023/10/27 01:50:41;;;;;;;1.33;0.93;;;;;;;-143.84;65.42;45085.25;5088251;28;20440;-57
2023/10/27 01:53:08;;;;;;;0.90;0.57;;;;;;;-143.84;65.70;45073.81;5088502;28;20462;-57
2023/10/27 01:55:35;;;;;;;0.97;0.70;;;;;;;-143.84;65.42;45068.13;5088439;28;20972;-57
2023/10/27 01:58:04;;;;;;;0.83;0.43;;;;;;;-143.84;65.25;45094.78;5087988;28;20509;-57
2023/10/27 02:00:31;;;;;;;0.80;0.50;;;;;;;-143.84;65.06;45070.00;5088208;28;20497;-57
2023/10/27 02:02:58;;;;;;;0.90;0.70;;;;;;;-143.84;64.91;45071.91;5089502;28;20439;-57
2023/10/27 02:05:26;;;;;;;1.00;0.50;;;;;;;-143.84;64.99;45075.72;5089221;28;20866;-57
2023/10/27 02:07:54;;;;;;;0.90;0.80;;;;;;;-143.84;64.92;45064.31;5089044;28;20475;-57
2023/10/27 02:10:22;;;;;;;0.80;0.37;;;;;;;-143.84;65.06;45102.38;5088791;28;20442;-57
2023/10/27 02:12:49;;;;;;;1.20;0.67;;;;;;;-143.84;64.62;45062.41;5092164;28;20432;-57
2023/10/27 02:15:18;;;;;;;0.80;0.40;;;;;;;-143.84;64.23;45077.63;5092268;28;20440;-57
2023/10/27 02:17:45;;;;;;;0.80;0.50;;;;;;;-143.84;64.28;45075.72;5092156;28;20452;-57
2023/10/27 02:20:12;;;;;;;0.80;0.40;;;;;;;-143.84;64.16;45077.63;5092182;28;20572;-57
2023/10/27 02:22:39;;;;;;;1.10;0.57;;;;;;;-143.84;63.82;45106.19;5092190;28;20444;-59
2023/10/27 02:25:07;;;;;;;0.80;0.50;;;;;;;-143.84;63.73;45079.53;5092015;28;20774;-59
2023/10/27 02:27:38;;;;;;;0.90;0.50;;;;;;;-143.84;64.01;45098.56;5091936;28;20992;-59
2023/10/27 02:30:07;;;;;;;1.27;0.73;;;;;;;-143.84;63.93;45081.44;5092026;28;20440;-59
2023/10/27 02:32:35;;;;;;;1.73;1.17;;;;;;;-143.84;64.18;45087.16;5091784;28;20964;-59
2023/10/27 02:35:02;;;;;;;1.40;0.83;;;;;;;-143.84;64.06;45085.25;5091403;28;21054;-59
2023/10/27 02:37:29;;;;;;;0.80;0.50;;;;;;;-143.84;64.08;45087.16;5091726;28;20814;-59
2023/10/27 02:39:56;;;;;;;1.47;0.97;;;;;;;-143.84;64.17;45089.06;5091464;28;20451;-59
2023/10/27 02:42:23;;;;;;;0.90;0.40;;;;;;;-143.84;64.08;45075.72;5092014;28;20850;-59
2023/10/27 02:44:50;;;;;;;0.80;0.43;;;;;;;-143.84;63.84;45089.06;5091570;28;20432;-59
2023/10/27 02:47:18;;;;;;;0.80;0.40;;;;;;;-143.84;63.58;45100.47;5091322;28;20483;-59
2023/10/27 02:49:46;;;;;;;0.90;0.50;;;;;;;-143.84;63.46;45056.69;5091376;28;20431;-59
2023/10/27 02:52:13;;;;;;;1.23;0.87;;;;;;;-143.84;63.42;45079.53;5091549;28;20444;-59
2023/10/27 02:54:40;;;;;;;2.47;1.00;;;;;;;-143.84;63.06;45079.53;5091414;28;20440;-57
2023/10/27 02:57:07;;;;;;;0.90;0.60;;;;;;;-143.84;63.25;45090.97;5091894;28;20858;-57
2023/10/27 02:59:36;;;;;;;0.80;0.50;;;;;;;-143.84;63.20;45075.72;5090956;28;20447;-57
2023/10/27 03:02:03;;;;;;;0.80;0.40;;;;;;;-143.84;63.31;45077.63;5090791;28;20440;-57
2023/10/27 03:04:30;;;;;;;0.90;0.60;;;;;;;-143.84;63.34;45087.16;5090784;28;20448;-57
2023/10/27 03:06:59;;;;;;;0.90;0.70;;;;;;;-143.84;63.37;45083.34;5091364;28;20565;-59
2023/10/27 03:09:26;;;;;;;0.80;0.50;;;;;;;-143.84;63.54;45062.41;5091173;28;20448;-59
2023/10/27 03:11:53;;;;;;;1.10;0.70;;;;;;;-143.84;63.74;45077.63;5090994;28;20493;-59
2023/10/27 03:14:20;;;;;;;0.80;0.50;;;;;;;-143.84;64.02;45068.13;5091144;28;20454;-59
2023/10/27 03:16:47;;;;;;;1.27;0.70;;;;;;;-143.84;64.27;45064.31;5091190;28;20483;-59
2023/10/27 03:19:14;;;;;;;0.80;0.40;;;;;;;-143.84;64.19;45102.38;5091167;28;20813;-59
2023/10/27 03:21:41;;;;;;;0.90;0.70;;;;;;;-143.84;63.91;45081.44;5090939;28;20429;-59
2023/10/27 03:24:10;;;;;;;19.47;1.13;;;;;;;-143.84;63.88;45075.72;5087693;28;20463;-57
2023/10/27 03:26:37;;;;;;;0.90;0.60;;;;;;;-143.84;63.97;45085.25;5091577;28;20483;-57
2023/10/27 03:29:04;;;;;;;0.80;0.40;;;;;;;-143.84;64.07;45087.16;5090754;28;20521;-57
2023/10/27 03:31:31;;;;;;;0.80;0.40;;;;;;;-143.84;63.94;45064.31;5090815;28;20443;-57
2023/10/27 03:33:59;;;;;;;0.80;0.50;;;;;;;-143.84;63.62;45092.88;5091342;28;20988;-56
2023/10/27 03:36:26;;;;;;;0.90;0.73;;;;;;;-143.84;63.71;45113.81;5091096;28;20534;-56
2023/10/27 03:38:53;;;;;;;1.00;0.60;;;;;;;-143.84;64.01;45089.06;5091298;28;20513;-57
2023/10/27 03:41:22;;;;;;;0.83;0.50;;;;;;;-143.84;64.10;45081.44;5091060;28;20432;-56
2023/10/27 03:43:49;;;;;;;0.90;0.67;;;;;;;-143.84;64.09;45094.78;5090956;28;20953;-57
2023/10/27 03:46:16;;;;;;;0.80;0.50;;;;;;;-143.84;64.44;45090.97;5091100;28;20945;-57
2023/10/27 03:48:44;;;;;;;0.90;0.50;;;;;;;-143.84;64.25;45096.66;5108024;28;20447;-57
2023/10/27 03:51:11;;;;;;;0.80;0.50;;;;;;;-143.84;64.49;45098.56;5111912;28;20441;-57
2023/10/27 03:53:39;;;;;;;1.17;0.60;;;;;;;-143.84;64.76;45090.97;5111858;28;20506;-57
2023/10/27 03:56:06;;;;;;;0.87;0.60;;;;;;;-143.84;64.76;45077.63;5111678;27;20483;-59
2023/10/27 03:58:34;;;;;;;0.80;0.40;;;;;;;-143.84;64.82;45081.44;5110944;28;20435;-57
2023/10/27 04:01:03;;;;;;;1.10;0.63;;;;;;;-143.84;65.02;45111.91;5111265;28;20439;-57
2023/10/27 04:03:31;;;;;;;1.00;0.80;;;;;;;-143.84;65.22;45100.47;5110519;28;20431;-59
2023/10/27 04:05:59;;;;;;;1.33;0.90;;;;;;;-143.84;65.34;45111.91;5110198;28;20435;-60
2023/10/27 04:08:26;;;;;;;0.90;0.63;;;;;;;-143.84;65.66;45117.63;5110089;28;20862;-60
2023/10/27 04:10:53;;;;;;;0.80;0.40;;;;;;;-143.84;65.58;45094.78;5110472;28;20439;-60
2023/10/27 04:13:20;;;;;;;0.80;0.47;;;;;;;-143.84;65.45;45090.97;5110566;28;20439;-60
2023/10/27 04:15:51;;;;;;;3.83;0.83;;;;;;;-143.84;65.50;45096.66;5110202;28;20511;-60
2023/10/27 04:18:18;;;;;;;0.80;0.50;;;;;;;-143.84;65.47;45079.53;5110347;27;20443;-60
2023/10/27 04:20:45;;;;;;;0.80;0.50;;;;;;;-143.84;65.82;45070.00;5110037;28;20446;-60
2023/10/27 04:23:13;;;;;;;0.90;0.60;;;;;;;-143.84;65.60;45089.06;5109934;28;20431;-60
2023/10/27 04:25:40;;;;;;;0.80;0.57;;;;;;;-143.84;65.72;45085.25;5110331;27;20475;-60
2023/10/27 04:28:07;;;;;;;0.90;0.60;;;;;;;-143.84;65.69;45077.63;5109884;28;20475;-60
2023/10/27 04:30:36;;;;;;;0.80;0.50;;;;;;;-143.84;65.49;45094.78;5109707;28;20443;-60
2023/10/27 04:33:05;;;;;;;0.80;0.47;;;;;;;-143.84;65.71;45113.81;5109965;28;20548;-60
2023/10/27 04:35:33;;;;;;;0.90;0.50;;;;;;;-143.84;65.79;45079.53;5108660;28;20551;-60
2023/10/27 04:38:00;;;;;;;0.90;0.60;;;;;;;-143.84;65.99;45068.13;5109643;28;20465;-60
2023/10/27 04:40:28;;;;;;;0.80;0.50;;;;;;;-143.84;65.61;45100.47;5109875;28;20496;-60
2023/10/27 04:42:57;;;;;;;0.90;0.70;;;;;;;-143.84;65.69;45071.91;5109628;28;20443;-60
2023/10/27 04:45:24;;;;;;;0.83;0.53;;;;;;;-143.84;65.77;45085.25;5109267;28;20450;-60
2023/10/27 04:47:51;;;;;;;1.00;0.50;;;;;;;-143.84;65.79;45083.34;5109588;28;20944;-60
2023/10/27 04:50:19;;;;;;;0.90;0.63;;;;;;;-143.84;65.76;45100.47;5109481;28;20838;-60
2023/10/27 04:52:46;;;;;;;1.73;0.90;;;;;;;-143.84;65.79;45073.81;5109278;28;20526;-60
2023/10/27 04:55:14;;;;;;;0.80;0.53;;;;;;;-143.84;65.59;45066.22;5109533;28;20845;-60
2023/10/27 04:57:41;;;;;;;0.90;0.70;;;;;;;-143.84;65.47;45094.78;5109512;28;20443;-60
2023/10/27 05:00:09;;;;;;;0.80;0.60;;;;;;;-143.84;65.62;45087.16;5109834;28;20443;-60
2023/10/27 05:02:36;;;;;;;0.90;0.50;;;;;;;-143.84;65.16;45096.66;5109312;28;20493;-60
2023/10/27 05:05:03;;;;;;;0.90;0.50;;;;;;;-143.84;65.14;45106.19;5109125;28;20435;-60
2023/10/27 05:07:32;;;;;;;1.00;0.70;;;;;;;-143.84;65.05;45096.66;5108412;28;20483;-60
2023/10/27 05:09:59;;;;;;;0.80;0.50;;;;;;;-143.84;64.95;45068.13;5108844;28;20451;-60
2023/10/27 05:12:26;;;;;;;0.90;0.50;;;;;;;-143.84;64.85;45098.56;5108802;28;20501;-60
2023/10/27 05:14:54;;;;;;;1.07;0.67;;;;;;;-143.84;64.48;45071.91;5109066;28;20446;-59
2023/10/27 05:17:21;;;;;;;0.80;0.50;;;;;;;-143.84;64.38;45089.06;5109412;28;20443;-59
2023/10/27 05:19:49;;;;;;;0.80;0.40;;;;;;;-143.84;64.02;45079.53;5109052;28;20443;-59
2023/10/27 05:22:16;;;;;;;0.80;0.43;;;;;;;-143.84;63.73;45070.00;5109179;28;20449;-59
2023/10/27 05:24:44;;;;;;;0.90;0.70;;;;;;;-143.84;63.47;45071.91;5109051;28;20447;-60
2023/10/27 05:27:11;;;;;;;0.80;0.60;;;;;;;-143.84;63.18;45075.72;5109134;28;20474;-60
2023/10/27 05:29:38;;;;;;;1.00;0.87;;;;;;;-143.84;63.42;45083.34;5109358;28;20504;-60
2023/10/27 05:32:06;;;;;;;0.80;0.50;;;;;;;-143.84;63.20;45090.97;5109060;28;20439;-60
2023/10/27 05:34:33;;;;;;;2.00;0.60;;;;;;;-143.84;62.87;45064.31;5108858;28;20482;-60
2023/10/27 05:37:00;;;;;;;0.80;0.40;;;;;;;-143.84;62.90;45062.41;5108889;28;20454;-60
2023/10/27 05:39:27;;;;;;;1.67;1.03;;;;;;;-143.84;62.74;45098.56;5108852;28;20431;-60
2023/10/27 05:41:56;;;;;;;0.90;0.60;;;;;;;-143.84;62.67;45077.63;5108710;28;20455;-60
2023/10/27 05:44:23;;;;;;;0.80;0.40;;;;;;;-143.84;62.66;45077.63;5108739;28;20457;-60
2023/10/27 05:46:50;;;;;;;0.90;0.60;;;;;;;-143.84;62.54;45075.72;5110789;28;20439;-60
2023/10/27 05:49:17;;;;;;;0.90;0.63;;;;;;;-143.84;62.14;45073.81;5113268;28;20500;-60
2023/10/27 05:51:45;;;;;;;1.07;0.60;;;;;;;-143.84;62.29;45062.41;5112853;28;20435;-59
2023/10/27 05:54:12;;;;;;;0.90;0.50;;;;;;;-143.84;62.26;45073.81;5112871;28;20987;-59
2023/10/27 05:56:40;;;;;;;0.80;0.50;;;;;;;-143.84;62.20;45068.13;5112889;28;20936;-59
2023/10/27 05:59:08;;;;;;;0.90;0.50;;;;;;;-143.84;61.90;45077.63;5112998;28;20496;-59
2023/10/27 06:01:36;;;;;;;1.20;0.83;;;;;;;-143.84;61.01;45064.31;5112928;28;20470;-59
2023/10/27 06:04:03;;;;;;;0.80;0.40;;;;;;;-143.84;60.40;45060.50;5112825;28;20434;-60
2023/10/27 06:06:30;;;;;;;1.00;0.70;;;;;;;-143.84;59.46;45052.88;5112771;28;20534;-59
2023/10/27 06:08:57;;;;;;;0.90;0.50;;;;;;;-143.84;59.25;45064.31;5112716;28;21186;-59
2023/10/27 06:11:25;;;;;;;0.80;0.50;;;;;;;-143.84;57.91;45060.50;5111999;28;20872;-59
2023/10/27 06:13:52;;;;;;;1.03;0.70;;;;;;;-143.84;57.88;45068.13;5112243;28;20488;-59
2023/10/27 06:16:20;;;;;;;1.87;1.43;;;;;;;-143.84;57.64;45041.44;5112502;28;20466;-59
2023/10/27 06:18:47;;;;;;;1.40;0.80;;;;;;;-143.84;56.71;45043.34;5111447;28;20446;-59
2023/10/27 06:21:14;;;;;;;1.10;1.00;;;;;;;-143.84;56.23;45068.13;5111863;27;20909;-59
2023/10/27 06:23:41;;;;;;;0.80;0.40;;;;;;;-143.84;55.85;45068.13;5112414;28;20965;-59
2023/10/27 06:26:09;;;;;;;1.40;0.60;;;;;;;-143.84;54.83;45064.31;5112381;27;20462;-59
2023/10/27 06:28:36;;;;;;;0.90;0.40;;;;;;;-143.84;54.60;45064.31;5112241;28;20539;-59
2023/10/27 06:31:03;;;;;;;0.90;0.50;;;;;;;-143.84;54.12;45062.41;5112050;28;20438;-59
2023/10/27 06:33:32;;;;;;;0.90;0.60;;;;;;;-143.84;53.46;45035.75;5112149;28;20446;-59
2023/10/27 06:36:00;;;;;;;0.90;0.57;;;;;;;-143.84;53.12;45073.81;5111994;28;20471;-59
2023/10/27 06:38:27;;;;;;;0.90;0.57;;;;;;;-143.84;52.19;45035.75;5112171;28;20450;-59
2023/10/27 06:40:54;;;;;;;0.90;0.50;;;;;;;-143.84;51.44;45045.25;5112120;28;20469;-59
2023/10/27 06:43:22;;;;;;;0.80;0.50;;;;;;;-143.84;50.98;45045.25;5111931;28;20464;-60
2023/10/27 06:45:49;;;;;;;1.80;0.80;;;;;;;-143.84;50.77;45056.69;5111873;28;20451;-60
2023/10/27 06:48:16;;;;;;;1.37;0.80;;;;;;;-143.84;50.17;45037.66;5111812;28;20475;-59
2023/10/27 06:50:44;;;;;;;0.90;0.60;;;;;;;-143.84;49.73;45033.84;5111863;28;20439;-59
2023/10/27 06:53:12;;;;;;;1.00;0.70;;;;;;;-143.84;49.60;45026.22;5111863;27;20447;-60
2023/10/27 06:55:39;;;;;;;0.90;0.53;;;;;;;-143.84;49.26;45026.22;5111758;28;20430;-59
2023/10/27 06:58:07;;;;;;;1.20;0.63;;;;;;;-143.84;49.25;45037.66;5111288;28;21025;-60
2023/10/27 07:00:34;;;;;;;1.17;0.63;;;;;;;-143.84;48.88;45035.75;5111899;28;20520;-58
2023/10/27 07:03:01;;;;;;;1.10;0.50;;;;;;;-143.84;48.15;45020.50;5111747;28;21009;-57
2023/10/27 07:05:29;;;;;;;0.80;0.50;;;;;;;-143.84;48.65;45047.16;5111967;28;20516;-57
2023/10/27 07:07:57;;;;;;;1.20;0.60;;;;;;;-143.84;48.26;45041.44;5111645;28;20471;-58
2023/10/27 07:10:25;;;;;;;2.20;0.70;;;;;;;-143.84;47.95;45026.22;5111592;28;20439;-57
2023/10/27 07:12:52;;;;;;;1.37;0.60;;;;;;;-143.84;46.72;45045.25;5111981;28;20443;-58
2023/10/27 07:15:20;;;;;;;0.80;0.50;;;;;;;-143.84;46.55;45024.31;5111774;28;20442;-58
2023/10/27 07:17:47;;;;;;;1.50;1.00;;;;;;;-143.84;46.34;45035.75;5112084;28;20439;-57
2023/10/27 07:20:14;;;;;;;1.60;0.57;;;;;;;-143.84;46.49;45031.94;5111574;28;20442;-58
2023/10/27 07:22:41;;;;;;;5.67;2.80;;;;;;;-143.84;46.06;45010.97;5111562;28;20956;-58
2023/10/27 07:25:10;;;;;;;1.00;0.70;;;;;;;-143.84;46.50;45037.66;5111452;28;20523;-57
2023/10/27 07:27:38;;;;;;;0.87;0.57;;;;;;;-143.84;46.59;45030.03;5111203;27;20478;-58
2023/10/27 07:30:06;;;;;;;1.90;0.80;;;;;;;-143.84;45.07;44990.03;5111566;28;21145;-58
2023/10/27 07:32:33;;;;;;;0.90;0.60;;;;;;;-143.84;44.67;45014.78;5111233;28;20435;-57
2023/10/27 07:35:01;;;;;;;1.30;0.70;;;;;;;-143.84;44.61;45012.88;5111039;28;20486;-58
2023/10/27 07:37:28;;;;;;;1.00;0.60;;;;;;;-143.84;44.33;45014.78;5111041;28;20427;-58
2023/10/27 07:39:55;;;;;;;1.10;0.90;;;;;;;-143.84;44.68;44991.94;5111070;28;20492;-57
2023/10/27 07:42:24;;;;;;;1.10;0.70;;;;;;;-143.84;44.53;45014.78;5111020;28;20445;-57
2023/10/27 07:44:51;;;;;;;1.00;0.60;;;;;;;-143.84;44.50;45047.16;5111295;28;20814;-58
2023/10/27 07:47:18;;;;;;;2.93;1.50;;;;;;;-143.84;44.20;44984.31;5111122;28;20446;-57
2023/10/27 07:49:45;;;;;;;0.90;0.50;;;;;;;-143.84;45.02;44988.13;5111222;28;20941;-59
2023/10/27 07:52:12;;;;;;;0.83;0.40;;;;;;;-143.84;44.55;45026.22;5110545;28;20447;-59
2023/10/27 07:54:39;;;;;;;1.20;0.67;;;;;;;-143.84;44.61;45022.41;5110685;28;20885;-60
2023/10/27 07:57:06;;;;;;;0.80;0.40;;;;;;;-143.84;44.29;45001.47;5111059;28;20476;-60
2023/10/27 07:59:35;;;;;;;1.80;1.47;;;;;;;-143.84;44.32;45009.09;5110761;28;20450;-60
2023/10/27 08:02:04;;;;;;;0.97;0.87;;;;;;;-143.84;44.79;45026.22;5110790;28;20932;-60
2023/10/27 08:04:32;;;;;;;5.87;1.17;;;;;;;-143.84;44.03;45018.59;5109106;28;20944;-60
2023/10/27 08:07:00;;;;;;;1.00;0.70;;;;;;;-143.84;44.18;45003.38;5109100;28;20440;-60
2023/10/27 08:09:29;;;;;;;0.93;0.60;;;;;;;-143.84;43.70;45022.41;5108034;28;20486;-59
2023/10/27 08:11:56;;;;;;;1.00;0.40;;;;;;;-143.84;43.46;45007.19;5110062;28;20435;-60
2023/10/27 08:14:23;;;;;;;0.90;0.50;;;;;;;-143.84;44.46;45041.44;5109998;28;20443;-59
2023/10/27 08:16:52;;;;;;;0.90;0.60;;;;;;;-143.84;44.08;45012.88;5110002;28;20431;-60
2023/10/27 08:19:20;;;;;;;1.73;0.70;;;;;;;-143.84;43.45;44993.84;5108570;28;20451;-60
2023/10/27 08:21:48;;;;;;;1.03;0.73;;;;;;;-143.84;43.24;45026.22;5109770;28;20443;-60
2023/10/27 08:24:16;;;;;;;1.07;0.80;;;;;;;-143.84;42.90;44990.03;5110255;27;20531;-60
2023/10/27 08:26:44;;;;;;;1.30;0.63;;;;;;;-143.84;42.36;44993.84;5110141;28;20443;-60
2023/10/27 08:29:11;;;;;;;0.80;0.43;;;;;;;-143.84;42.03;44986.22;5110049;28;20482;-60
2023/10/27 08:31:38;;;;;;;0.90;0.57;;;;;;;-143.84;42.48;44993.84;5110042;28;20500;-60
2023/10/27 08:34:10;;;;;;;1.10;1.00;;;;;;;-143.84;42.35;44984.31;5109885;28;20501;-59
2023/10/27 08:36:38;;;;;;;0.93;0.77;;;;;;;-143.84;42.88;44997.66;5109763;28;20910;-59
2023/10/27 08:39:05;;;;;;;1.23;0.60;;;;;;;-143.84;43.54;45014.78;5108381;28;20821;-60
2023/10/27 08:41:36;;;;;;;1.33;1.00;;;;;;;-143.84;42.65;45005.28;5109812;28;20439;-59
2023/10/27 08:44:03;;;;;;;1.57;0.50;;;;;;;-143.84;42.45;44999.56;5109758;27;20443;-59
2023/10/27 08:46:32;;;;;;;1.40;0.50;;;;;;;-143.84;42.79;44999.56;5109803;28;20435;-59
2023/10/27 08:48:59;;;;;;;1.20;0.63;;;;;;;-143.84;43.14;45010.97;5108151;28;20483;-59
2023/10/27 08:51:28;;;;;;;0.90;0.60;;;;;;;-143.84;42.57;44978.63;5109859;28;20496;-59
2023/10/27 08:53:55;;;;;;;1.00;0.90;;;;;;;-143.84;42.91;44988.13;5109842;28;20435;-59
2023/10/27 08:56:22;;;;;;;1.73;1.03;;;;;;;-143.84;42.22;44990.03;5108315;28;20438;-60
2023/10/27 08:58:51;;;;;;;1.30;0.90;;;;;;;-143.84;41.65;44988.13;5109462;28;20440;-60
2023/10/27 09:01:19;;;;;;;1.00;0.60;;;;;;;-143.84;42.20;45001.47;5109407;28;20449;-59
2023/10/27 09:04:07;;;;;;;2.47;1.00;;;;;;;-143.84;42.58;45016.69;5109638;28;20435;-59
2023/10/27 09:06:37;;;;;;;0.90;0.50;;;;;;;-143.84;42.34;44991.94;5109202;28;20447;-59
2023/10/27 09:09:05;;;;;;;1.10;0.77;;;;;;;-143.84;42.59;45007.19;5109482;28;20482;-59
2023/10/27 09:11:41;;;;;;;5.03;0.67;;;;;;;-143.84;42.99;44991.94;5109390;28;20439;-59
2023/10/27 09:14:20;;;;;;;0.90;0.50;;;;;;;-143.84;43.30;45001.47;5107887;28;20438;-59
2023/10/27 09:16:48;;;;;;;1.10;0.70;;;;;;;-143.84;43.36;44999.56;5109571;28;20507;-60
2023/10/27 09:19:24;;;;;;;0.87;0.50;;;;;;;-143.84;43.75;44963.38;5109282;28;20961;-59
2023/10/27 09:21:53;;;;;;;2.10;1.37;;;;;;;-143.84;43.55;44995.75;5107569;28;20769;-59
2023/10/27 09:24:25;;;;;;;0.80;0.50;;;;;;;-143.84;44.17;45003.38;5109185;28;20450;-60
2023/10/27 09:26:52;;;;;;;1.53;1.43;;;;;;;-143.84;44.19;44995.75;5109293;28;20940;-59
2023/10/27 09:29:20;;;;;;;1.30;1.03;;;;;;;-143.84;44.00;44980.53;5107467;28;20483;-59
2023/10/27 09:31:48;;;;;;;0.80;0.40;;;;;;;-143.84;45.10;44997.66;5109097;28;20451;-59
2023/10/27 09:34:20;;;;;;;1.00;0.70;;;;;;;-143.84;44.71;45020.50;5108860;28;20474;-59
2023/10/27 09:36:50;;;;;;;1.20;0.50;;;;;;;-143.84;46.02;44993.84;5090689;28;20522;-60
2023/10/27 09:39:22;;;;;;;1.10;0.70;;;;;;;-143.84;44.93;45010.97;5109194;28;21193;-60
2023/10/27 09:41:55;;;;;;;1.50;1.10;;;;;;;-143.84;45.52;44988.13;5109090;28;20443;-59
2023/10/27 09:44:36;;;;;;;0.80;0.50;;;;;;;-143.84;45.82;44982.41;5108994;28;20435;-59
2023/10/27 09:47:11;;;;;;;0.80;0.40;;;;;;;-143.84;46.75;44984.31;5109023;28;20430;-59
2023/10/27 09:49:41;;;;;;;1.03;0.73;;;;;;;-143.84;46.47;44990.03;5108544;28;20991;-59
2023/10/27 09:52:11;;;;;;;0.90;0.60;;;;;;;-143.84;46.13;44986.22;5108970;28;20455;-59
2023/10/27 09:54:41;;;;;;;0.80;0.50;;;;;;;-143.84;47.64;44993.84;5108883;28;20526;-59
2023/10/27 09:57:10;;;;;;;0.90;0.40;;;;;;;-143.84;47.17;45003.38;5108805;28;20447;-60
2023/10/27 09:59:37;;;;;;;0.90;0.60;;;;;;;-143.84;46.61;44988.13;5108813;28;20960;-59
2023/10/27 10:02:06;;;;;;;0.97;0.47;;;;;;;-143.84;47.05;45020.50;5108643;28;20492;-59
2023/10/27 10:04:59;;;;;;;0.80;0.50;;;;;;;-143.84;48.54;45010.97;5107347;28;20442;-59
2023/10/27 10:07:33;;;;;;;0.80;0.40;;;;;;;-143.84;47.83;45010.97;5108844;28;20803;-59
2023/10/27 10:10:25;;;;;;;0.97;0.77;;;;;;;-143.84;47.06;44999.56;5107419;28;20482;-59
2023/10/27 10:13:07;;;;;;;2.50;0.77;;;;;;;-143.84;48.31;45028.13;5107397;28;20533;-59
2023/10/27 10:15:36;;;;;;;1.03;0.80;;;;;;;-143.84;48.45;45014.78;5075518;28;21249;-59
2023/10/27 10:18:06;;;;;;;0.90;0.60;;;;;;;-143.84;50.39;45012.88;5108889;28;20445;-57
2023/10/27 10:20:59;;;;;;;1.20;1.10;;;;;;;-143.84;54.78;45035.75;5107382;28;20530;-57
2023/10/27 10:24:10;;;;;;;2.17;1.43;;;;;;;-143.84;57.26;45018.59;5108924;28;20447;-57
2023/10/27 10:27:12;;;;;;;0.80;0.53;;;;;;;-143.84;60.18;45041.44;5088178;28;20451;-57
2023/10/27 10:29:40;;;;;;;2.00;1.03;;;;;;;-143.84;63.28;45037.66;5108606;28;21014;-57
2023/10/27 10:32:34;;;;;;;1.10;0.80;;;;;;;-143.84;63.40;45018.59;5109338;28;20431;-57
2023/10/27 10:35:23;;;;;;;0.90;0.70;;;;;;;-143.84;63.02;45026.22;5104301;28;20903;-57
2023/10/27 10:37:54;;;;;;;0.80;0.40;;;;;;;-143.84;61.97;45058.59;5112211;28;20442;-57
2023/10/27 10:40:24;;;;;;;0.80;0.50;;;;;;;-143.84;59.11;45028.13;5111731;28;20869;-57
2023/10/27 10:43:27;;;;;;;1.43;0.80;;;;;;;-143.84;57.41;45014.78;5111912;28;20457;-59
2023/10/27 10:45:56;;;;;;;2.00;0.60;;;;;;;-143.84;57.45;45020.50;5111310;28;20457;-59
2023/10/27 10:48:25;;;;;;;1.73;1.00;;;;;;;-143.84;56.85;45026.22;5110918;28;20443;-59
2023/10/27 10:50:55;;;;;;;1.00;0.70;;;;;;;-143.84;54.88;45054.78;5111863;28;20430;-59
2023/10/27 10:53:25;;;;;;;0.80;0.40;;;;;;;-143.84;54.77;45022.41;5112445;28;20443;-58
2023/10/27 10:55:57;;;;;;;1.27;1.17;;;;;;;-143.84;54.22;45016.69;5113098;28;20431;-57
2023/10/27 10:58:27;;;;;;;0.97;0.70;;;;;;;-143.84;53.52;45005.28;5113315;28;20439;-57
2023/10/27 11:00:56;;;;;;;1.77;1.00;;;;;;;-143.84;53.72;44999.56;5112385;28;20496;-57
2023/10/27 11:03:25;;;;;;;0.90;0.70;;;;;;;-143.84;53.19;45030.03;5111844;28;20473;-57
2023/10/27 11:05:54;;;;;;;0.90;0.50;;;;;;;-143.84;51.39;45012.88;5112074;27;20500;-57
2023/10/27 11:08:26;;;;;;;0.90;0.60;;;;;;;-143.84;52.38;45028.13;5111766;28;20447;-57
2023/10/27 11:11:00;;;;;;;2.47;1.00;;;;;;;-143.84;51.27;45003.38;5111942;27;20439;-57
2023/10/27 11:13:30;;;;;;;1.80;0.77;;;;;;;-143.84;51.41;45010.97;5111561;28;20437;-57
2023/10/27 11:15:57;;;;;;;0.90;0.47;;;;;;;-143.84;52.18;44997.66;5111345;28;20485;-57
2023/10/27 11:18:28;;;;;;;0.90;0.50;;;;;;;-143.84;51.64;45031.94;5111491;28;20439;-57
2023/10/27 11:20:55;;;;;;;1.40;0.70;;;;;;;-143.84;51.42;45030.03;5111846;28;20500;-59
2023/10/27 11:23:27;;;;;;;0.80;0.53;;;;;;;-143.84;52.07;45003.38;5111546;28;20435;-59
2023/10/27 11:26:03;;;;;;;1.80;0.80;;;;;;;-143.84;50.87;45047.16;5111625;28;20531;-59